Terminal Aerodrome Forecast
Issued by NWS

Home | Current Version | Previous Version | Text Only | Print | Product List | Glossary On
Versions: 1 2 3 4 5 6 7 8 9 10 11 12
667
FTUS45 KMSO 061120
TAFSMN
TAF
KSMN 061120Z 0612/0712 14005KT P6SM -SHRA OVC050
     FM061700 34010KT P6SM VCSH BKN050
     FM062200 07015G20KT P6SM VCTS BKN050CB
      AMD LTD TO CLD VIS AND WIND=

USA.gov is the U.S. government's official web portal to all federal, state and local government web resources and services.